ACA205 CYOW-CYQT
Flight info
| Callsign | ACA205 |
|---|---|
| Flight time | 2h 1m |
| Altitude | 40000 |
| Route | SELES DCT OLIGO Q904 OTONA DCT YYB DCT DUPUL NOTER4 |
| Aircraft | A339/H-SADE1E2E3GHIJ3J5M1P2RWXY/LB2D1 |
Departure
| Time | 2026-04-23 19:39 |
|---|---|
| Airport | Ottawa Macdonald-Cartier International Airport (CYOW) |
Arrival
| Time | 2026-04-23 21:40 |
|---|---|
| Airport | Thunder Bay International Airport (CYQT) |
| Time | Latitude | Longitude | Altitude | Speed | Heading |
|---|---|---|---|---|---|
| 2026-04-23 19:30 | 45.32118 | -75.66741 | 386 ft | 0 kts | 36° |
| 2026-04-23 19:31 | 45.32113 | -75.66746 | 386 ft | 0 kts | 36° |
| 2026-04-23 19:32 | 45.32110 | -75.66749 | 386 ft | 0 kts | 36° |
| 2026-04-23 19:32 | 45.32107 | -75.66752 | 386 ft | 3 kts | 36° |
| 2026-04-23 19:32 | 45.32096 | -75.66764 | 385 ft | 0 kts | 43° |
| 2026-04-23 19:32 | 45.32084 | -75.66778 | 385 ft | 2 kts | 58° |
| 2026-04-23 19:33 | 45.32076 | -75.66799 | 385 ft | 2 kts | 78° |
| 2026-04-23 19:33 | 45.32071 | -75.66825 | 385 ft | 3 kts | 110° |
| 2026-04-23 19:33 | 45.32079 | -75.66850 | 385 ft | 0 kts | 130° |
| 2026-04-23 19:36 | 45.32072 | -75.66838 | 385 ft | 8 kts | 130° |
| 2026-04-23 19:36 | 45.31963 | -75.66746 | 385 ft | 27 kts | 159° |
| 2026-04-23 19:37 | 45.31841 | -75.66544 | 383 ft | 29 kts | 109° |
| 2026-04-23 19:37 | 45.31725 | -75.66271 | 379 ft | 35 kts | 126° |
| 2026-04-23 19:37 | 45.31565 | -75.65967 | 382 ft | 41 kts | 126° |
| 2026-04-23 19:37 | 45.31395 | -75.65637 | 384 ft | 41 kts | 126° |
| 2026-04-23 19:38 | 45.31234 | -75.65463 | 382 ft | 25 kts | 169° |
| 2026-04-23 19:38 | 45.31107 | -75.65541 | 382 ft | 9 kts | 257° |
| 2026-04-23 19:38 | 45.31121 | -75.65571 | 383 ft | 0 kts | 302° |
| 2026-04-23 19:38 | 45.31123 | -75.65577 | 383 ft | 5 kts | 303° |
| 2026-04-23 19:39 | 45.31286 | -75.65893 | 385 ft | 82 kts | 307° |
| 2026-04-23 19:39 | 45.31782 | -75.66856 | 388 ft | 155 kts | 306° |
| 2026-04-23 19:39 | 45.32472 | -75.68207 | 828 ft | 179 kts | 306° |
| 2026-04-23 19:39 | 45.33221 | -75.69715 | 1546 ft | 193 kts | 306° |
| 2026-04-23 19:40 | 45.33995 | -75.71344 | 2297 ft | 203 kts | 306° |
| 2026-04-23 19:40 | 45.34768 | -75.73022 | 3230 ft | 202 kts | 306° |
| 2026-04-23 19:40 | 45.35538 | -75.74696 | 4157 ft | 203 kts | 304° |
| 2026-04-23 19:40 | 45.36375 | -75.76340 | 4920 ft | 210 kts | 310° |
| 2026-04-23 19:41 | 45.37367 | -75.77957 | 5427 ft | 229 kts | 313° |
| 2026-04-23 19:41 | 45.38478 | -75.79728 | 5937 ft | 243 kts | 313° |
| 2026-04-23 19:41 | 45.39209 | -75.80937 | 6473 ft | 243 kts | 312° |
| 2026-04-23 19:41 | 45.40625 | -75.83366 | 7582 ft | 239 kts | 311° |
| 2026-04-23 19:42 | 45.41661 | -75.85195 | 8430 ft | 237 kts | 311° |
| 2026-04-23 19:42 | 45.42684 | -75.87017 | 9324 ft | 234 kts | 311° |
| 2026-04-23 19:42 | 45.43648 | -75.88898 | 10123 ft | 236 kts | 304° |
| 2026-04-23 19:42 | 45.44369 | -75.91069 | 10519 ft | 255 kts | 295° |
| 2026-04-23 19:43 | 45.44798 | -75.93646 | 10696 ft | 280 kts | 287° |
| 2026-04-23 19:43 | 45.45150 | -75.96458 | 11004 ft | 294 kts | 287° |
| 2026-04-23 19:43 | 45.45512 | -75.99328 | 11674 ft | 295 kts | 287° |
| 2026-04-23 19:43 | 45.45762 | -76.01273 | 12123 ft | 296 kts | 287° |
| 2026-04-23 19:44 | 45.46146 | -76.04165 | 12775 ft | 298 kts | 288° |
| 2026-04-23 19:44 | 45.46534 | -76.07032 | 13435 ft | 300 kts | 288° |
| 2026-04-23 19:44 | 45.46933 | -76.09965 | 14051 ft | 302 kts | 288° |
| 2026-04-23 19:44 | 45.47335 | -76.12916 | 14627 ft | 305 kts | 288° |
| 2026-04-23 19:45 | 45.47740 | -76.15891 | 15169 ft | 307 kts | 288° |
| 2026-04-23 19:45 | 45.48146 | -76.18894 | 15741 ft | 310 kts | 288° |
| 2026-04-23 19:45 | 45.48556 | -76.21921 | 16301 ft | 312 kts | 288° |
| 2026-04-23 19:45 | 45.48964 | -76.24976 | 16851 ft | 316 kts | 287° |
| 2026-04-23 19:46 | 45.49252 | -76.28106 | 17385 ft | 321 kts | 284° |
| 2026-04-23 19:46 | 45.49519 | -76.31278 | 17926 ft | 324 kts | 284° |
| 2026-04-23 19:46 | 45.49795 | -76.34475 | 18454 ft | 326 kts | 284° |
| 2026-04-23 19:46 | 45.50073 | -76.37698 | 18947 ft | 329 kts | 284° |
| 2026-04-23 19:47 | 45.50353 | -76.40946 | 19412 ft | 331 kts | 284° |
| 2026-04-23 19:47 | 45.50634 | -76.44216 | 19911 ft | 333 kts | 284° |
| 2026-04-23 19:47 | 45.50915 | -76.47503 | 20411 ft | 336 kts | 284° |
| 2026-04-23 19:47 | 45.51199 | -76.50822 | 20906 ft | 338 kts | 284° |
| 2026-04-23 19:48 | 45.51483 | -76.54159 | 21383 ft | 341 kts | 284° |
| 2026-04-23 19:48 | 45.51768 | -76.57528 | 21894 ft | 344 kts | 284° |
| 2026-04-23 19:48 | 45.52055 | -76.60925 | 22386 ft | 347 kts | 284° |
| 2026-04-23 19:48 | 45.52343 | -76.64348 | 22864 ft | 349 kts | 284° |
| 2026-04-23 19:49 | 45.52631 | -76.67804 | 23369 ft | 352 kts | 284° |
| 2026-04-23 19:49 | 45.52922 | -76.71291 | 23818 ft | 356 kts | 284° |
| 2026-04-23 19:49 | 45.53212 | -76.74802 | 24261 ft | 357 kts | 284° |
| 2026-04-23 19:49 | 45.53503 | -76.78331 | 24710 ft | 359 kts | 284° |
| 2026-04-23 19:50 | 45.53795 | -76.81871 | 25161 ft | 361 kts | 284° |
| 2026-04-23 19:50 | 45.54087 | -76.85437 | 25599 ft | 363 kts | 284° |
| 2026-04-23 19:50 | 45.54382 | -76.89027 | 26003 ft | 365 kts | 284° |
| 2026-04-23 19:50 | 45.54676 | -76.92635 | 26423 ft | 368 kts | 284° |
| 2026-04-23 19:51 | 45.54970 | -76.96270 | 26840 ft | 370 kts | 284° |
| 2026-04-23 19:51 | 45.55265 | -76.99925 | 27265 ft | 372 kts | 284° |
| 2026-04-23 19:51 | 45.55560 | -77.03599 | 27676 ft | 374 kts | 284° |
| 2026-04-23 19:51 | 45.55856 | -77.07300 | 28073 ft | 376 kts | 284° |
| 2026-04-23 19:52 | 45.56152 | -77.11014 | 28484 ft | 378 kts | 284° |
| 2026-04-23 19:52 | 45.56448 | -77.14752 | 28889 ft | 380 kts | 284° |
| 2026-04-23 19:52 | 45.56745 | -77.18511 | 29265 ft | 382 kts | 284° |
| 2026-04-23 19:52 | 45.57042 | -77.22286 | 29644 ft | 384 kts | 284° |
| 2026-04-23 19:53 | 45.57341 | -77.26086 | 30006 ft | 386 kts | 284° |
| 2026-04-23 19:53 | 45.57639 | -77.29903 | 30365 ft | 388 kts | 283° |
| 2026-04-23 19:53 | 45.57937 | -77.33738 | 30664 ft | 391 kts | 283° |
| 2026-04-23 19:53 | 45.58237 | -77.37609 | 30965 ft | 394 kts | 283° |
| 2026-04-23 19:54 | 45.58538 | -77.41504 | 31260 ft | 397 kts | 283° |
| 2026-04-23 19:54 | 45.58835 | -77.45384 | 31549 ft | 400 kts | 283° |
| 2026-04-23 19:54 | 45.59136 | -77.49339 | 31849 ft | 402 kts | 283° |
| 2026-04-23 19:54 | 45.59438 | -77.53327 | 32135 ft | 405 kts | 283° |
| 2026-04-23 19:55 | 45.59742 | -77.57340 | 32407 ft | 408 kts | 283° |
| 2026-04-23 19:55 | 45.60046 | -77.61380 | 32650 ft | 411 kts | 283° |
| 2026-04-23 19:55 | 45.60351 | -77.65447 | 32875 ft | 413 kts | 283° |
| 2026-04-23 19:55 | 45.60656 | -77.69537 | 33081 ft | 415 kts | 283° |
| 2026-04-23 19:56 | 45.60960 | -77.73650 | 33259 ft | 417 kts | 283° |
| 2026-04-23 19:56 | 45.61302 | -77.77765 | 33411 ft | 416 kts | 287° |
| 2026-04-23 19:56 | 45.61975 | -77.81756 | 33573 ft | 411 kts | 293° |
| 2026-04-23 19:56 | 45.63009 | -77.85534 | 33778 ft | 406 kts | 300° |
| 2026-04-23 19:57 | 45.64366 | -77.89051 | 33995 ft | 402 kts | 306° |
| 2026-04-23 19:57 | 45.65941 | -77.92336 | 34196 ft | 401 kts | 308° |
| 2026-04-23 19:57 | 45.67517 | -77.95621 | 34398 ft | 401 kts | 308° |
| 2026-04-23 19:57 | 45.69083 | -77.98919 | 34570 ft | 401 kts | 307° |
| 2026-04-23 19:58 | 45.70642 | -78.02217 | 34762 ft | 400 kts | 307° |
| 2026-04-23 19:58 | 45.72201 | -78.05521 | 34953 ft | 400 kts | 307° |
| 2026-04-23 19:58 | 45.73756 | -78.08820 | 35143 ft | 400 kts | 307° |
| 2026-04-23 19:58 | 45.75311 | -78.12122 | 35330 ft | 400 kts | 307° |
| 2026-04-23 19:59 | 45.76867 | -78.15427 | 35506 ft | 400 kts | 307° |
| 2026-04-23 19:59 | 45.78420 | -78.18730 | 35698 ft | 400 kts | 307° |
| 2026-04-23 19:59 | 45.79971 | -78.22031 | 35884 ft | 399 kts | 307° |
| 2026-04-23 19:59 | 45.81522 | -78.25336 | 36068 ft | 399 kts | 307° |
| 2026-04-23 20:00 | 45.83070 | -78.28637 | 36253 ft | 399 kts | 307° |
| 2026-04-23 20:00 | 45.84617 | -78.31942 | 36430 ft | 399 kts | 307° |
| 2026-04-23 20:00 | 45.86162 | -78.35247 | 36592 ft | 399 kts | 307° |
| 2026-04-23 20:00 | 45.87704 | -78.38550 | 36776 ft | 399 kts | 307° |
| 2026-04-23 20:01 | 45.89247 | -78.41858 | 36938 ft | 399 kts | 307° |
| 2026-04-23 20:01 | 45.90789 | -78.45168 | 37113 ft | 399 kts | 307° |
| 2026-04-23 20:01 | 45.92327 | -78.48474 | 37280 ft | 398 kts | 307° |
| 2026-04-23 20:01 | 45.93847 | -78.51744 | 37413 ft | 399 kts | 307° |
| 2026-04-23 20:02 | 45.95385 | -78.55056 | 37607 ft | 398 kts | 307° |
| 2026-04-23 20:02 | 45.96921 | -78.58369 | 37759 ft | 398 kts | 307° |
| 2026-04-23 20:02 | 45.98458 | -78.61688 | 37945 ft | 398 kts | 307° |
| 2026-04-23 20:02 | 45.99991 | -78.65001 | 38092 ft | 398 kts | 307° |
| 2026-04-23 20:03 | 46.01524 | -78.68320 | 38247 ft | 398 kts | 307° |
| 2026-04-23 20:03 | 46.03056 | -78.71637 | 38423 ft | 398 kts | 306° |
| 2026-04-23 20:03 | 46.04587 | -78.74958 | 38563 ft | 398 kts | 306° |
| 2026-04-23 20:03 | 46.06115 | -78.78278 | 38740 ft | 398 kts | 306° |
| 2026-04-23 20:04 | 46.07644 | -78.81601 | 38848 ft | 398 kts | 306° |
| 2026-04-23 20:04 | 46.09171 | -78.84928 | 38956 ft | 399 kts | 306° |
| 2026-04-23 20:04 | 46.10703 | -78.88267 | 39058 ft | 399 kts | 306° |
| 2026-04-23 20:05 | 46.13767 | -78.94954 | 39241 ft | 400 kts | 306° |
| 2026-04-23 20:05 | 46.16836 | -79.01669 | 39427 ft | 402 kts | 306° |
| 2026-04-23 20:06 | 46.19912 | -79.08419 | 39588 ft | 403 kts | 306° |
| 2026-04-23 20:06 | 46.21453 | -79.11806 | 39697 ft | 404 kts | 306° |
| 2026-04-23 20:06 | 46.22995 | -79.15198 | 39794 ft | 404 kts | 306° |
| 2026-04-23 20:07 | 46.26080 | -79.22001 | 39966 ft | 405 kts | 306° |
| 2026-04-23 20:07 | 46.29170 | -79.28830 | 40086 ft | 406 kts | 306° |
| 2026-04-23 20:08 | 46.32258 | -79.35671 | 40081 ft | 406 kts | 306° |
| 2026-04-23 20:08 | 46.35203 | -79.42711 | 40074 ft | 413 kts | 300° |
| 2026-04-23 20:09 | 46.37344 | -79.50427 | 40080 ft | 420 kts | 291° |
| 2026-04-23 20:09 | 46.39002 | -79.58571 | 40094 ft | 422 kts | 291° |
| 2026-04-23 20:10 | 46.40430 | -79.65408 | 40095 ft | 424 kts | 291° |
| 2026-04-23 20:10 | 46.42417 | -79.74940 | 40107 ft | 426 kts | 291° |
| 2026-04-23 20:11 | 46.44121 | -79.83173 | 40108 ft | 427 kts | 290° |
| 2026-04-23 20:11 | 46.45819 | -79.91421 | 40117 ft | 427 kts | 290° |
| 2026-04-23 20:12 | 46.47509 | -79.99677 | 40117 ft | 427 kts | 290° |
| 2026-04-23 20:12 | 46.49195 | -80.07955 | 40120 ft | 428 kts | 290° |
| 2026-04-23 20:13 | 46.50876 | -80.16237 | 40120 ft | 428 kts | 290° |
| 2026-04-23 20:13 | 46.52553 | -80.24542 | 40121 ft | 429 kts | 290° |
| 2026-04-23 20:14 | 46.54226 | -80.32856 | 40119 ft | 429 kts | 290° |
| 2026-04-23 20:14 | 46.55894 | -80.41181 | 40112 ft | 429 kts | 290° |
| 2026-04-23 20:15 | 46.57557 | -80.49523 | 40102 ft | 430 kts | 290° |
| 2026-04-23 20:15 | 46.59216 | -80.57875 | 40100 ft | 431 kts | 289° |
| 2026-04-23 20:16 | 46.60873 | -80.66251 | 40091 ft | 431 kts | 289° |
| 2026-04-23 20:16 | 46.62522 | -80.74627 | 40091 ft | 431 kts | 289° |
| 2026-04-23 20:17 | 46.64166 | -80.83013 | 40090 ft | 431 kts | 289° |
| 2026-04-23 20:17 | 46.65803 | -80.91397 | 40089 ft | 431 kts | 289° |
| 2026-04-23 20:18 | 46.67433 | -80.99787 | 40097 ft | 431 kts | 289° |
| 2026-04-23 20:18 | 46.69058 | -81.08182 | 40099 ft | 431 kts | 289° |
| 2026-04-23 20:19 | 46.70677 | -81.16583 | 40105 ft | 430 kts | 289° |
| 2026-04-23 20:19 | 46.72290 | -81.24985 | 40108 ft | 430 kts | 288° |
| 2026-04-23 20:20 | 46.73895 | -81.33394 | 40105 ft | 430 kts | 288° |
| 2026-04-23 20:20 | 46.75493 | -81.41800 | 40103 ft | 430 kts | 288° |
| 2026-04-23 20:21 | 46.77086 | -81.50215 | 40099 ft | 430 kts | 288° |
| 2026-04-23 20:21 | 46.78674 | -81.58636 | 40095 ft | 430 kts | 288° |
| 2026-04-23 20:22 | 46.80255 | -81.67064 | 40090 ft | 430 kts | 288° |
| 2026-04-23 20:22 | 46.81828 | -81.75487 | 40089 ft | 430 kts | 287° |
| 2026-04-23 20:23 | 46.83397 | -81.83926 | 40090 ft | 430 kts | 287° |
| 2026-04-23 20:23 | 46.84949 | -81.92309 | 40083 ft | 430 kts | 287° |
| 2026-04-23 20:24 | 46.86505 | -82.00754 | 40080 ft | 430 kts | 287° |
| 2026-04-23 20:24 | 46.88055 | -82.09206 | 40078 ft | 431 kts | 287° |
| 2026-04-23 20:25 | 46.89600 | -82.17667 | 40074 ft | 431 kts | 287° |
| 2026-04-23 20:25 | 46.91138 | -82.26135 | 40077 ft | 431 kts | 287° |
| 2026-04-23 20:26 | 46.92672 | -82.34612 | 40076 ft | 431 kts | 286° |
| 2026-04-23 20:26 | 46.94198 | -82.43091 | 40074 ft | 431 kts | 286° |
| 2026-04-23 20:27 | 46.95719 | -82.51575 | 40070 ft | 431 kts | 286° |
| 2026-04-23 20:27 | 46.97231 | -82.60057 | 40069 ft | 431 kts | 286° |
| 2026-04-23 20:28 | 46.98739 | -82.68547 | 40068 ft | 431 kts | 286° |
| 2026-04-23 20:28 | 47.00241 | -82.77052 | 40063 ft | 431 kts | 285° |
| 2026-04-23 20:29 | 47.01737 | -82.85562 | 40062 ft | 431 kts | 285° |
| 2026-04-23 20:29 | 47.03226 | -82.94072 | 40063 ft | 431 kts | 285° |
| 2026-04-23 20:30 | 47.04462 | -83.01165 | 40054 ft | 432 kts | 285° |
| 2026-04-23 20:30 | 47.06697 | -83.13962 | 40051 ft | 432 kts | 286° |
| 2026-04-23 20:31 | 47.08199 | -83.22494 | 40041 ft | 432 kts | 285° |
| 2026-04-23 20:31 | 47.09667 | -83.31038 | 40036 ft | 432 kts | 285° |
| 2026-04-23 20:32 | 47.11121 | -83.39597 | 40029 ft | 432 kts | 285° |
| 2026-04-23 20:32 | 47.12569 | -83.48169 | 40028 ft | 433 kts | 284° |
| 2026-04-23 20:33 | 47.14014 | -83.56753 | 40023 ft | 433 kts | 284° |
| 2026-04-23 20:33 | 47.15455 | -83.65355 | 40013 ft | 434 kts | 284° |
| 2026-04-23 20:34 | 47.16891 | -83.73969 | 40001 ft | 434 kts | 284° |
| 2026-04-23 20:34 | 47.18321 | -83.82596 | 39999 ft | 435 kts | 284° |
| 2026-04-23 20:35 | 47.19747 | -83.91231 | 40012 ft | 435 kts | 284° |
| 2026-04-23 20:35 | 47.21169 | -83.99882 | 40002 ft | 435 kts | 284° |
| 2026-04-23 20:36 | 47.22585 | -84.08543 | 39999 ft | 435 kts | 283° |
| 2026-04-23 20:36 | 47.23997 | -84.17215 | 39987 ft | 436 kts | 283° |
| 2026-04-23 20:37 | 47.25400 | -84.25888 | 39974 ft | 436 kts | 283° |
| 2026-04-23 20:37 | 47.26799 | -84.34573 | 39963 ft | 436 kts | 283° |
| 2026-04-23 20:38 | 47.28191 | -84.43259 | 39963 ft | 436 kts | 283° |
| 2026-04-23 20:38 | 47.29577 | -84.51949 | 39953 ft | 436 kts | 283° |
| 2026-04-23 20:39 | 47.30956 | -84.60644 | 39962 ft | 436 kts | 283° |
| 2026-04-23 20:39 | 47.32320 | -84.69286 | 39958 ft | 436 kts | 282° |
| 2026-04-23 20:40 | 47.33685 | -84.77985 | 39934 ft | 436 kts | 282° |
| 2026-04-23 20:40 | 47.35045 | -84.86692 | 39932 ft | 436 kts | 282° |
| 2026-04-23 20:41 | 47.36397 | -84.95400 | 39923 ft | 436 kts | 282° |
| 2026-04-23 20:41 | 47.37743 | -85.04114 | 39923 ft | 436 kts | 282° |
| 2026-04-23 20:42 | 47.39083 | -85.12835 | 39924 ft | 436 kts | 282° |
| 2026-04-23 20:42 | 47.40416 | -85.21562 | 39934 ft | 436 kts | 282° |
| 2026-04-23 20:43 | 47.41745 | -85.30301 | 39928 ft | 436 kts | 282° |
| 2026-04-23 20:43 | 47.43067 | -85.39049 | 39918 ft | 437 kts | 282° |
| 2026-04-23 20:44 | 47.44383 | -85.47807 | 39903 ft | 437 kts | 282° |
| 2026-04-23 20:44 | 47.45694 | -85.56575 | 39903 ft | 437 kts | 281° |
| 2026-04-23 20:45 | 47.46999 | -85.65357 | 39910 ft | 438 kts | 281° |
| 2026-04-23 20:45 | 47.48299 | -85.74152 | 39908 ft | 438 kts | 281° |
| 2026-04-23 20:46 | 47.48937 | -85.78482 | 39900 ft | 438 kts | 281° |
| 2026-04-23 21:08 | 47.48938 | -85.78494 | 39890 ft | 438 kts | 281° |
| 2026-04-23 21:09 | 47.50061 | -85.87186 | 39876 ft | 421 kts | 278° |
| 2026-04-23 21:09 | 47.51177 | -85.95573 | 39863 ft | 410 kts | 279° |
| 2026-04-23 21:10 | 47.52428 | -86.03775 | 39856 ft | 412 kts | 283° |
| 2026-04-23 21:10 | 47.53802 | -86.12117 | 39864 ft | 422 kts | 282° |
| 2026-04-23 21:11 | 47.55075 | -86.20670 | 39858 ft | 428 kts | 281° |
| 2026-04-23 21:11 | 47.56310 | -86.29336 | 39847 ft | 432 kts | 281° |
| 2026-04-23 21:12 | 47.57536 | -86.38019 | 39826 ft | 435 kts | 281° |
| 2026-04-23 21:12 | 47.58770 | -86.46791 | 39818 ft | 436 kts | 281° |
| 2026-04-23 21:13 | 47.60001 | -86.55589 | 39824 ft | 436 kts | 281° |
| 2026-04-23 21:13 | 47.61226 | -86.64396 | 39814 ft | 436 kts | 281° |
| 2026-04-23 21:14 | 47.62445 | -86.73205 | 39807 ft | 436 kts | 281° |
| 2026-04-23 21:14 | 47.63623 | -86.81746 | 39803 ft | 436 kts | 281° |
| 2026-04-23 21:15 | 47.64833 | -86.90553 | 39797 ft | 436 kts | 281° |
| 2026-04-23 21:15 | 47.65835 | -86.97874 | 39793 ft | 436 kts | 281° |
| 2026-04-23 21:16 | 47.66704 | -87.04261 | 39791 ft | 434 kts | 279° |
| 2026-04-23 21:16 | 47.68475 | -87.12644 | 39650 ft | 429 kts | 295° |
| 2026-04-23 21:17 | 47.69903 | -87.16529 | 39398 ft | 425 kts | 297° |
| 2026-04-23 21:17 | 47.71338 | -87.20328 | 39168 ft | 419 kts | 297° |
| 2026-04-23 21:17 | 47.72742 | -87.24092 | 38920 ft | 414 kts | 296° |
| 2026-04-23 21:17 | 47.74115 | -87.27825 | 38691 ft | 411 kts | 296° |
| 2026-04-23 21:18 | 47.75470 | -87.31545 | 38449 ft | 408 kts | 296° |
| 2026-04-23 21:18 | 47.76811 | -87.35246 | 38171 ft | 406 kts | 296° |
| 2026-04-23 21:18 | 47.78143 | -87.38935 | 37885 ft | 405 kts | 296° |
| 2026-04-23 21:18 | 47.79476 | -87.42632 | 37313 ft | 407 kts | 296° |
| 2026-04-23 21:19 | 47.80806 | -87.46323 | 36985 ft | 403 kts | 296° |
| 2026-04-23 21:19 | 47.82120 | -87.49975 | 36559 ft | 399 kts | 296° |
| 2026-04-23 21:19 | 47.83428 | -87.53615 | 36027 ft | 398 kts | 296° |
| 2026-04-23 21:19 | 47.84731 | -87.57246 | 35529 ft | 397 kts | 296° |
| 2026-04-23 21:20 | 47.86027 | -87.60862 | 35049 ft | 395 kts | 296° |
| 2026-04-23 21:20 | 47.87316 | -87.64467 | 34589 ft | 393 kts | 296° |
| 2026-04-23 21:20 | 47.88599 | -87.68057 | 34127 ft | 392 kts | 296° |
| 2026-04-23 21:20 | 47.89882 | -87.71651 | 33722 ft | 393 kts | 297° |
| 2026-04-23 21:21 | 47.91157 | -87.75225 | 33314 ft | 389 kts | 297° |
| 2026-04-23 21:21 | 47.92421 | -87.78771 | 32849 ft | 386 kts | 297° |
| 2026-04-23 21:21 | 47.93676 | -87.82297 | 32392 ft | 384 kts | 296° |
| 2026-04-23 21:21 | 47.94924 | -87.85808 | 31894 ft | 382 kts | 296° |
| 2026-04-23 21:22 | 47.96172 | -87.89326 | 31197 ft | 386 kts | 297° |
| 2026-04-23 21:22 | 47.97434 | -87.92890 | 30455 ft | 391 kts | 297° |
| 2026-04-23 21:22 | 47.98711 | -87.96500 | 29723 ft | 395 kts | 297° |
| 2026-04-23 21:22 | 48.00001 | -88.00148 | 28903 ft | 399 kts | 296° |
| 2026-04-23 21:23 | 48.01298 | -88.03820 | 28096 ft | 401 kts | 296° |
| 2026-04-23 21:23 | 48.02585 | -88.07467 | 27323 ft | 403 kts | 296° |
| 2026-04-23 21:23 | 48.03911 | -88.11231 | 26553 ft | 405 kts | 296° |
| 2026-04-23 21:23 | 48.05222 | -88.14960 | 25811 ft | 405 kts | 296° |
| 2026-04-23 21:24 | 48.06532 | -88.18690 | 25086 ft | 406 kts | 295° |
| 2026-04-23 21:24 | 48.07843 | -88.22432 | 24373 ft | 406 kts | 295° |
| 2026-04-23 21:24 | 48.09142 | -88.26137 | 23649 ft | 398 kts | 295° |
| 2026-04-23 21:24 | 48.10416 | -88.29779 | 22812 ft | 392 kts | 295° |
| 2026-04-23 21:25 | 48.11662 | -88.33346 | 22009 ft | 383 kts | 294° |
| 2026-04-23 21:25 | 48.12882 | -88.36843 | 21248 ft | 374 kts | 294° |
| 2026-04-23 21:25 | 48.14072 | -88.40263 | 20493 ft | 367 kts | 294° |
| 2026-04-23 21:25 | 48.15238 | -88.43618 | 19765 ft | 360 kts | 294° |
| 2026-04-23 21:26 | 48.16380 | -88.46909 | 19041 ft | 353 kts | 294° |
| 2026-04-23 21:26 | 48.17508 | -88.50162 | 18229 ft | 351 kts | 294° |
| 2026-04-23 21:26 | 48.18625 | -88.53391 | 17342 ft | 348 kts | 293° |
| 2026-04-23 21:26 | 48.19721 | -88.56559 | 16452 ft | 346 kts | 293° |
| 2026-04-23 21:27 | 48.20811 | -88.59749 | 15585 ft | 341 kts | 290° |
| 2026-04-23 21:27 | 48.21607 | -88.63046 | 14743 ft | 333 kts | 279° |
| 2026-04-23 21:27 | 48.21973 | -88.66424 | 13920 ft | 325 kts | 269° |
| 2026-04-23 21:27 | 48.22027 | -88.69778 | 13059 ft | 320 kts | 266° |
| 2026-04-23 21:28 | 48.22081 | -88.73092 | 12168 ft | 317 kts | 266° |
| 2026-04-23 21:28 | 48.22149 | -88.76380 | 11290 ft | 314 kts | 266° |
| 2026-04-23 21:28 | 48.22222 | -88.79627 | 10469 ft | 310 kts | 266° |
| 2026-04-23 21:28 | 48.22296 | -88.82834 | 9643 ft | 306 kts | 265° |
| 2026-04-23 21:29 | 48.22365 | -88.86002 | 8747 ft | 302 kts | 265° |
| 2026-04-23 21:29 | 48.22430 | -88.89129 | 7879 ft | 298 kts | 265° |
| 2026-04-23 21:29 | 48.22494 | -88.92220 | 7024 ft | 295 kts | 265° |
| 2026-04-23 21:29 | 48.22556 | -88.95281 | 6206 ft | 295 kts | 265° |
| 2026-04-23 21:30 | 48.22614 | -88.98383 | 5333 ft | 300 kts | 266° |
| 2026-04-23 21:30 | 48.22673 | -89.01525 | 4572 ft | 302 kts | 266° |
| 2026-04-23 21:30 | 48.22737 | -89.04607 | 4198 ft | 288 kts | 266° |
| 2026-04-23 21:30 | 48.22802 | -89.07515 | 4047 ft | 271 kts | 266° |
| 2026-04-23 21:31 | 48.22859 | -89.10367 | 4008 ft | 276 kts | 266° |
| 2026-04-23 21:31 | 48.22935 | -89.13187 | 3989 ft | 261 kts | 266° |
| 2026-04-23 21:31 | 48.22989 | -89.15785 | 4012 ft | 249 kts | 265° |
| 2026-04-23 21:31 | 48.23024 | -89.18412 | 3998 ft | 252 kts | 265° |
| 2026-04-23 21:32 | 48.23061 | -89.21039 | 4002 ft | 252 kts | 265° |
| 2026-04-23 21:32 | 48.23101 | -89.23675 | 4003 ft | 254 kts | 265° |
| 2026-04-23 21:32 | 48.23144 | -89.26318 | 4001 ft | 253 kts | 265° |
| 2026-04-23 21:32 | 48.23186 | -89.28965 | 4007 ft | 254 kts | 265° |
| 2026-04-23 21:33 | 48.23232 | -89.31606 | 3999 ft | 252 kts | 265° |
| 2026-04-23 21:33 | 48.23281 | -89.34239 | 4001 ft | 253 kts | 265° |
| 2026-04-23 21:33 | 48.23329 | -89.36883 | 4005 ft | 254 kts | 265° |
| 2026-04-23 21:33 | 48.23375 | -89.39519 | 4003 ft | 249 kts | 265° |
| 2026-04-23 21:34 | 48.23426 | -89.42064 | 4001 ft | 238 kts | 265° |
| 2026-04-23 21:34 | 48.23442 | -89.44485 | 3994 ft | 229 kts | 262° |
| 2026-04-23 21:34 | 48.23458 | -89.46889 | 3998 ft | 232 kts | 265° |
| 2026-04-23 21:34 | 48.23521 | -89.49278 | 3996 ft | 232 kts | 265° |
| 2026-04-23 21:35 | 48.23778 | -89.51736 | 4001 ft | 242 kts | 285° |
| 2026-04-23 21:35 | 48.24712 | -89.53731 | 4007 ft | 228 kts | 316° |
| 2026-04-23 21:35 | 48.26057 | -89.54781 | 4007 ft | 222 kts | 341° |
| 2026-04-23 21:35 | 48.27554 | -89.55362 | 3917 ft | 221 kts | 348° |
| 2026-04-23 21:36 | 48.30413 | -89.55191 | 3608 ft | 192 kts | 46° |
| 2026-04-23 21:36 | 48.31153 | -89.53802 | 3550 ft | 160 kts | 70° |
| 2026-04-23 21:36 | 48.31709 | -89.52306 | 3380 ft | 166 kts | 72° |
| 2026-04-23 21:37 | 48.32230 | -89.50811 | 3196 ft | 159 kts | 73° |
| 2026-04-23 21:37 | 48.32724 | -89.49310 | 3001 ft | 155 kts | 74° |
| 2026-04-23 21:37 | 48.33181 | -89.47859 | 2813 ft | 153 kts | 75° |
| 2026-04-23 21:37 | 48.33604 | -89.46420 | 2616 ft | 149 kts | 75° |
| 2026-04-23 21:38 | 48.34010 | -89.45003 | 2422 ft | 145 kts | 74° |
| 2026-04-23 21:38 | 48.34397 | -89.43609 | 2226 ft | 144 kts | 73° |
| 2026-04-23 21:38 | 48.34777 | -89.42209 | 2009 ft | 143 kts | 73° |
| 2026-04-23 21:38 | 48.35163 | -89.40817 | 1728 ft | 147 kts | 70° |
| 2026-04-23 21:39 | 48.35565 | -89.39411 | 1590 ft | 146 kts | 70° |
| 2026-04-23 21:39 | 48.35918 | -89.38016 | 1367 ft | 144 kts | 71° |
| 2026-04-23 21:39 | 48.36259 | -89.36540 | 1153 ft | 151 kts | 72° |
| 2026-04-23 21:39 | 48.36605 | -89.35090 | 930 ft | 143 kts | 71° |
| 2026-04-23 21:40 | 48.36932 | -89.33718 | 743 ft | 135 kts | 70° |
| 2026-04-23 21:40 | 48.37228 | -89.32456 | 665 ft | 116 kts | 70° |
| 2026-04-23 21:40 | 48.37445 | -89.31552 | 658 ft | 61 kts | 70° |
| 2026-04-23 21:40 | 48.37490 | -89.31234 | 659 ft | 15 kts | 118° |
| 2026-04-23 21:41 | 48.37402 | -89.31228 | 658 ft | 16 kts | 200° |
| 2026-04-23 21:41 | 48.37304 | -89.31332 | 658 ft | 18 kts | 222° |
| 2026-04-23 21:41 | 48.37215 | -89.31381 | 659 ft | 9 kts | 161° |
| 2026-04-23 21:41 | 48.37190 | -89.31332 | 659 ft | 0 kts | 121° |